Latest Weather Observations for Melville Water

IDW60901

Issued at 10:35 am WST Tuesday 21 October 2014 (issued every 10 minutes, with the page automatically refreshed every 10 minutes)

About weather observations | Map of Perth area stations | Latest observations for Perth area | Other Formats
Station Details ID: 009091 Name: INNER DOLPHIN PYLON Lat: -31.99 Lon: 115.83 Height: 0.0 m
Data from the previous 72 hours. | See also: Recent months for locations in Western Australia
Date/Time
WST
Tmp

°C
App
Tmp
°C
Dew
Point
°C
Rel
Hum
%
Delta-T

°C
Wind Press
QNH
hPa
Press
MSL
hPa
Rain
since
9 am
mm
Dir
 
Spd
km/h
Gust
km/h
Spd
kts
Gust
kts
21/10:30am - - - - - SE 2 9 1 5 - - -
21/10:00am - - - - - SW 2 4 1 2 - - -
21/09:30am - - - - - S 6 11 3 6 - - -
21/09:00am - - - - - NE 4 7 2 4 - - -
21/08:30am - - - - - NE 9 13 5 7 - - -
21/08:00am - - - - - ENE 6 7 3 4 - - -
21/07:30am - - - - - E 4 6 2 3 - - -
21/07:00am - - - - - E 6 6 3 3 - - -
21/06:30am - - - - - E 4 6 2 3 - - -
21/06:00am - - - - - ESE 9 11 5 6 - - -
21/05:30am - - - - - ESE 6 7 3 4 - - -
21/05:00am - - - - - E 9 11 5 6 - - -
21/04:30am - - - - - E 6 7 3 4 - - -
21/04:00am - - - - - E 7 9 4 5 - - -
21/03:30am - - - - - E 6 9 3 5 - - -
21/03:00am - - - - - ENE 7 7 4 4 - - -
21/02:30am - - - - - N 4 6 2 3 - - -
21/02:00am - - - - - ENE 6 7 3 4 - - -
21/01:30am - - - - - NE 4 6 2 3 - - -
21/01:00am - - - - - ESE 6 9 3 5 - - -
21/12:30am - - - - - ESE 9 11 5 6 - - -
21/12:00am - - - - - SE 7 11 4 6 - - -
 
Date/Time
WST
Tmp

°C
App
Tmp
°C
Dew
Point
°C
Rel
Hum
%
Delta-T

°C
Wind Press
QNH
hPa
Press
MSL
hPa
Rain
since
9 am
mm
Dir
 
Spd
km/h
Gust
km/h
Spd
kts
Gust
kts
20/11:30pm - - - - - S 7 9 4 5 - - -
20/11:00pm - - - - - SSE 9 11 5 6 - - -
20/10:30pm - - - - - SE 11 15 6 8 - - -
20/10:00pm - - - - - S 11 13 6 7 - - -
20/09:30pm - - - - - SSW 11 15 6 8 - - -
20/09:00pm - - - - - SSW 17 20 9 11 - - -
20/08:30pm - - - - - SSW 15 19 8 10 - - -
20/08:00pm - - - - - SSW 19 24 10 13 - - -
20/07:30pm - - - - - SSW 20 26 11 14 - - -
20/07:00pm - - - - - SSW 22 28 12 15 - - -
20/06:30pm - - - - - SSW 22 30 12 16 - - -
20/06:00pm - - - - - SSW 24 28 13 15 - - -
20/05:30pm - - - - - SSW 24 33 13 18 - - -
20/05:00pm - - - - - SW 26 30 14 16 - - -
20/04:30pm - - - - - SW 26 35 14 19 - - -
20/04:00pm - - - - - SW 22 30 12 16 - - -
20/03:30pm - - - - - SW 24 30 13 16 - - -
20/03:00pm - - - - - WSW 26 32 14 17 - - -
20/02:30pm - - - - - SW 22 28 12 15 - - -
20/02:00pm - - - - - WSW 26 35 14 19 - - -
20/01:30pm - - - - - WSW 24 30 13 16 - - -
20/01:00pm - - - - - WSW 24 33 13 18 - - -
20/12:30pm - - - - - WSW 24 32 13 17 - - -
20/12:00pm - - - - - WSW 24 30 13 16 - - -
20/11:30am - - - - - SW 20 26 11 14 - - -
20/11:00am - - - - - SW 19 26 10 14 - - -
20/10:30am - - - - - SW 20 24 11 13 - - -
20/10:00am - - - - - SW 20 26 11 14 - - -
20/09:30am - - - - - SW 20 26 11 14 - - -
20/09:00am - - - - - SW 19 24 10 13 - - -
20/08:30am - - - - - SW 6 9 3 5 - - -
20/08:00am - - - - - SW 4 9 2 5 - - -
20/07:30am - - - - - ESE 4 6 2 3 - - -
20/07:00am - - - - - SSW 2 6 1 3 - - -
20/06:30am - - - - - SW 2 6 1 3 - - -
20/06:00am - - - - - S 7 11 4 6 - - -
20/05:30am - - - - - S 6 9 3 5 - - -
20/05:00am - - - - - S 7 11 4 6 - - -
20/04:30am - - - - - S 11 17 6 9 - - -
20/04:00am - - - - - SSE 13 17 7 9 - - -
20/03:30am - - - - - S 9 13 5 7 - - -
20/03:00am - - - - - S 11 15 6 8 - - -
20/02:30am - - - - - S 11 15 6 8 - - -
20/02:00am - - - - - S 11 15 6 8 - - -
20/01:30am - - - - - S 19 22 10 12 - - -
20/01:00am - - - - - S 17 22 9 12 - - -
20/12:30am - - - - - S 19 24 10 13 - - -
20/12:00am - - - - - S 15 20 8 11 - - -
 
Date/Time
WST
Tmp

°C
App
Tmp
°C
Dew
Point
°C
Rel
Hum
%
Delta-T

°C
Wind Press
QNH
hPa
Press
MSL
hPa
Rain
since
9 am
mm
Dir
 
Spd
km/h
Gust
km/h
Spd
kts
Gust
kts
19/11:30pm - - - - - S 17 19 9 10 - - -
19/11:00pm - - - - - SSW 17 24 9 13 - - -
19/10:30pm - - - - - SSW 17 22 9 12 - - -
19/10:00pm - - - - - SSW 19 22 10 12 - - -
19/09:30pm - - - - - S 17 20 9 11 - - -
19/09:00pm - - - - - S 13 17 7 9 - - -
19/08:30pm - - - - - S 15 19 8 10 - - -
19/08:00pm - - - - - S 19 22 10 12 - - -
19/07:30pm - - - - - S 19 22 10 12 - - -
19/07:00pm - - - - - SSE 22 30 12 16 - - -
19/06:30pm - - - - - SSE 20 26 11 14 - - -
19/06:00pm - - - - - S 22 28 12 15 - - -
19/05:30pm - - - - - SE 24 33 13 18 - - -
19/05:00pm - - - - - SSE 26 35 14 19 - - -
19/04:30pm - - - - - SSE 30 41 16 22 - - -
19/04:00pm - - - - - SSE 30 39 16 21 - - -
19/03:30pm - - - - - SSE 32 39 17 21 - - -
19/03:00pm - - - - - S 32 43 17 23 - - -
19/02:30pm - - - - - S 28 39 15 21 - - -
19/02:00pm - - - - - S 30 37 16 20 - - -
19/01:30pm - - - - - S 22 32 12 17 - - -
19/01:00pm - - - - - S 20 24 11 13 - - -
19/12:30pm - - - - - SSE 24 32 13 17 - - -
19/12:00pm - - - - - SSE 22 30 12 16 - - -
19/11:30am - - - - - S 19 22 10 12 - - -
19/11:00am - - - - - S 17 22 9 12 - - -
19/10:30am - - - - - S 15 20 8 11 - - -
19/10:00am - - - - - SE 15 20 8 11 - - -
19/09:30am - - - - - ESE 9 13 5 7 - - -
19/09:00am - - - - - SSE 20 32 11 17 - - -
19/08:30am - - - - - SE 24 32 13 17 - - -
19/08:00am - - - - - SSE 24 32 13 17 - - -
19/07:30am - - - - - SSE 19 28 10 15 - - -
19/07:00am - - - - - SSE 24 33 13 18 - - -
19/06:30am - - - - - SE 24 32 13 17 - - -
19/06:00am - - - - - SE 26 33 14 18 - - -
19/05:30am - - - - - SE 24 33 13 18 - - -
19/05:00am - - - - - SSE 24 35 13 19 - - -
19/04:30am - - - - - SSE 22 32 12 17 - - -
19/04:00am - - - - - SE 20 33 11 18 - - -
19/03:30am - - - - - SE 24 30 13 16 - - -
19/03:00am - - - - - ESE 22 41 12 22 - - -
19/02:30am - - - - - ESE 30 44 16 24 - - -
19/02:15am - - - - - ESE 28 48 15 26 - - -
19/02:00am - - - - - ESE 26 33 14 18 - - -
19/01:30am - - - - - ESE 30 50 16 27 - - -
19/01:25am - - - - - ESE 28 50 15 27 - - -
19/01:00am - - - - - ESE 28 39 15 21 - - -
19/12:35am - - - - - ESE 28 46 15 25 - - -
19/12:30am - - - - - ESE 24 39 13 21 - - -
19/12:00am - - - - - ESE 35 48 19 26 - - -
 
Date/Time
WST
Tmp

°C
App
Tmp
°C
Dew
Point
°C
Rel
Hum
%
Delta-T

°C
Wind Press
QNH
hPa
Press
MSL
hPa
Rain
since
9 am
mm
Dir
 
Spd
km/h
Gust
km/h
Spd
kts
Gust
kts
18/11:31pm - - - - - ESE 33 54 18 29 - - -
18/11:30pm - - - - - ESE 32 44 17 24 - - -
18/11:12pm - - - - - ESE 28 48 15 26 - - -
18/11:00pm - - - - - ESE 28 39 15 21 - - -
18/10:34pm - - - - - SE 30 48 16 26 - - -
18/10:30pm - - - - - SE 32 48 17 26 - - -
18/10:00pm - - - - - SE 28 44 15 24 - - -
18/09:30pm - - - - - SE 20 32 11 17 - - -
18/09:00pm - - - - - ESE 33 46 18 25 - - -
18/08:30pm - - - - - ESE 28 35 15 19 - - -
18/08:00pm - - - - - SE 32 43 17 23 - - -
18/07:30pm - - - - - SE 35 48 19 26 - - -
18/07:00pm - - - - - SE 35 43 19 23 - - -
18/06:30pm - - - - - SSE 28 35 15 19 - - -
18/06:00pm - - - - - SSE 33 41 18 22 - - -
18/05:30pm - - - - - SSE 26 33 14 18 - - -
18/05:00pm - - - - - SSE 24 35 13 19 - - -
18/04:30pm - - - - - SSE 26 37 14 20 - - -
18/04:00pm - - - - - SSE 24 39 13 21 - - -
18/03:30pm - - - - - SE 35 46 19 25 - - -
18/03:00pm - - - - - SE 39 46 21 25 - - -
18/02:30pm - - - - - SE 20 32 11 17 - - -
18/02:00pm - - - - - SE 20 28 11 15 - - -
18/01:30pm - - - - - E 15 22 8 12 - - -
18/01:00pm - - - - - E 13 20 7 11 - - -
18/12:30pm - - - - - E 20 26 11 14 - - -
18/12:00pm - - - - - ESE 20 26 11 14 - - -
18/11:30am - - - - - SE 20 30 11 16 - - -
18/11:00am - - - - - ESE 20 28 11 15 - - -

Latest Capital City Observations: Canberra | Sydney | Melbourne | Brisbane | Adelaide | Perth | Hobart | Darwin

Other Formats:

Comma delimited format used in spreadsheet applications
http://www.bom.gov.au/fwo/IDW60901/IDW60901.95620.axf

JavaScript Object Notation format (JSON) in row-major order
http://www.bom.gov.au/fwo/IDW60901/IDW60901.95620.json